createdAt,value
2022-10-11T00:00:37.369Z,3.22
2022-10-11T00:02:39.663Z,3.03
2022-10-11T00:04:42.078Z,2.70
2022-10-11T00:06:44.385Z,2.85
2022-10-11T00:08:46.638Z,2.95
2022-10-11T00:10:58.789Z,2.55
2022-10-11T00:13:01.046Z,2.88
2022-10-11T00:15:04.408Z,2.67
2022-10-11T00:17:07.956Z,2.80
2022-10-11T00:19:10.195Z,3.03
2022-10-11T00:21:13.828Z,2.58
2022-10-11T00:23:16.170Z,2.95
2022-10-11T00:25:18.571Z,2.55
2022-10-11T00:27:20.860Z,2.70
2022-10-11T00:29:23.166Z,3.05
2022-10-11T00:31:25.531Z,3.35
2022-10-11T00:33:27.849Z,3.08
2022-10-11T00:35:30.136Z,2.80
2022-10-11T00:37:36.666Z,2.72
2022-10-11T00:39:38.885Z,3.17
2022-10-11T00:41:41.262Z,2.90
2022-10-11T00:43:43.870Z,3.28
2022-10-11T00:46:00.779Z,2.65
2022-10-11T00:48:04.930Z,3.05
2022-10-11T00:50:11.568Z,2.90
2022-10-11T00:52:34.614Z,3.00
2022-10-11T00:54:40.377Z,2.55
2022-10-11T00:56:44.715Z,2.80
2022-10-11T00:58:47.368Z,2.50
2022-10-11T01:00:50.167Z,2.70
2022-10-11T01:02:52.457Z,2.40
2022-10-11T01:05:18.012Z,2.85
2022-10-11T01:07:18.114Z,2.88
2022-10-11T01:09:20.922Z,2.70
2022-10-11T01:11:24.741Z,2.60
2022-10-11T01:13:29.984Z,3.17
2022-10-11T01:15:36.692Z,2.53
2022-10-11T01:17:57.006Z,2.50
2022-10-11T01:20:02.244Z,2.35
2022-10-11T01:22:07.520Z,2.65
2022-10-11T01:24:09.830Z,3.35
2022-10-11T01:26:12.087Z,2.38
2022-10-11T01:28:17.392Z,2.63
2022-10-11T01:30:28.280Z,2.80
2022-10-11T01:32:59.792Z,2.67
2022-10-11T01:35:04.800Z,2.78
2022-10-11T01:37:20.153Z,2.30
2022-10-11T01:39:22.505Z,3.00
2022-10-11T01:41:45.006Z,2.92
2022-10-11T01:43:48.629Z,3.10
2022-10-11T01:45:52.051Z,2.83
2022-10-11T01:48:14.150Z,2.60
2022-10-11T01:50:35.225Z,2.78
2022-10-11T01:52:40.460Z,2.80
2022-10-11T01:55:08.611Z,2.78
2022-10-11T01:57:20.099Z,2.90
2022-10-11T01:59:31.688Z,2.80
2022-10-11T02:01:52.796Z,2.80
2022-10-11T02:04:02.787Z,2.42
2022-10-11T02:06:09.093Z,2.42
2022-10-11T02:08:23.493Z,3.17
2022-10-11T02:10:28.681Z,3.08
2022-10-11T02:12:37.987Z,2.90
2022-10-11T02:14:42.268Z,2.83
2022-10-11T02:16:49.399Z,2.63
2022-10-11T02:18:53.493Z,2.67
2022-10-11T02:20:57.348Z,2.75
2022-10-11T02:23:21.379Z,3.05
2022-10-11T02:25:25.559Z,2.50
2022-10-11T02:27:30.897Z,3.28
2022-10-11T02:29:34.655Z,2.80
2022-10-11T02:31:37.293Z,2.70
2022-10-11T02:33:56.348Z,2.60
2022-10-11T02:36:03.838Z,2.38
2022-10-11T02:38:21.545Z,2.70
2022-10-11T02:40:26.684Z,2.33
2022-10-11T02:42:33.911Z,2.72
2022-10-11T02:44:38.638Z,2.70
2022-10-11T02:46:41.562Z,2.72
2022-10-11T02:48:43.786Z,2.47
2022-10-11T02:50:46.032Z,2.80
2022-10-11T02:52:48.253Z,2.88
2022-10-11T02:54:50.535Z,2.65
2022-10-11T02:56:52.914Z,2.80
2022-10-11T02:58:55.147Z,2.75
2022-10-11T03:00:57.442Z,2.83
2022-10-11T03:02:59.667Z,3.35
2022-10-11T03:05:02.199Z,2.45
2022-10-11T03:07:04.533Z,2.53
2022-10-11T03:09:07.098Z,3.10
2022-10-11T03:11:09.384Z,2.85
2022-10-11T03:13:16.005Z,3.45
2022-10-11T03:15:20.300Z,2.83
2022-10-11T03:17:36.037Z,2.30
2022-10-11T03:19:39.139Z,2.72
2022-10-11T03:21:41.363Z,2.65
2022-10-11T03:23:43.657Z,2.95
2022-10-11T03:25:46.657Z,2.60
2022-10-11T03:27:48.903Z,3.30
2022-10-11T03:29:51.183Z,2.38
2022-10-11T03:31:53.846Z,3.53
2022-10-11T03:33:56.123Z,3.40
2022-10-11T03:35:58.378Z,2.83
2022-10-11T03:38:00.632Z,2.72
2022-10-11T03:40:03.582Z,2.67
2022-10-11T03:42:05.923Z,3.22
2022-10-11T03:44:08.238Z,2.45
2022-10-11T03:46:10.556Z,2.60
2022-10-11T03:48:12.868Z,2.80
2022-10-11T03:50:15.158Z,2.70
2022-10-11T03:52:17.461Z,2.30
2022-10-11T03:54:19.766Z,3.03
2022-10-11T03:56:22.029Z,2.60
2022-10-11T03:58:24.619Z,2.47
2022-10-11T04:00:27.753Z,2.78
2022-10-11T04:02:30.138Z,2.92
2022-10-11T04:04:32.446Z,3.58
2022-10-11T04:06:34.819Z,2.90
2022-10-11T04:08:37.109Z,2.83
2022-10-11T04:10:40.072Z,3.33
2022-10-11T04:12:42.448Z,2.88
2022-10-11T04:14:44.722Z,3.08
2022-10-11T04:16:46.961Z,2.60
2022-10-11T04:18:49.259Z,3.13
2022-10-11T04:20:51.523Z,3.05
2022-10-11T04:22:53.792Z,3.38
2022-10-11T04:24:56.023Z,2.90
2022-10-11T04:26:58.830Z,2.58
2022-10-11T04:29:01.068Z,2.70
2022-10-11T04:31:05.164Z,2.97
2022-10-11T04:33:07.436Z,2.50
2022-10-11T04:35:09.833Z,2.92
2022-10-11T04:37:12.083Z,2.70
2022-10-11T04:39:14.350Z,3.95
2022-10-11T04:41:16.983Z,2.83
2022-10-11T04:43:19.436Z,3.50
2022-10-11T04:45:22.417Z,3.63
2022-10-11T04:47:24.686Z,3.60
2022-10-11T04:49:26.964Z,3.70
2022-10-11T04:51:29.248Z,3.40
2022-10-11T04:53:31.514Z,3.03
2022-10-11T04:55:33.756Z,3.97
2022-10-11T04:57:36.005Z,4.18
2022-10-11T04:59:38.240Z,3.42
2022-10-11T05:01:40.607Z,3.67
2022-10-11T05:03:42.855Z,3.75
2022-10-11T05:05:45.253Z,4.38
2022-10-11T05:07:47.496Z,3.63
2022-10-11T05:09:49.747Z,4.93
2022-10-11T05:11:52.016Z,3.28
2022-10-11T05:13:54.346Z,3.88
2022-10-11T05:15:56.630Z,3.90
2022-10-11T05:17:58.930Z,3.67
2022-10-11T05:20:01.175Z,3.22
2022-10-11T05:22:03.443Z,4.30
2022-10-11T05:24:05.845Z,3.67
2022-10-11T05:26:08.466Z,4.18
2022-10-11T05:28:11.124Z,4.15
2022-10-11T05:30:13.463Z,4.63
2022-10-11T05:32:15.740Z,4.60
2022-10-11T05:34:17.998Z,3.83
2022-10-11T05:36:20.268Z,4.82
2022-10-11T05:38:22.971Z,4.97
2022-10-11T05:40:25.204Z,3.97
2022-10-11T05:42:27.452Z,3.80
2022-10-11T05:44:30.873Z,5.55
2022-10-11T05:46:33.174Z,3.72
2022-10-11T05:48:35.492Z,3.65
2022-10-11T05:50:38.301Z,4.07
2022-10-11T05:52:40.714Z,4.80
2022-10-11T05:54:42.982Z,4.65
2022-10-11T05:56:45.210Z,4.28
2022-10-11T05:58:47.535Z,5.35
2022-10-11T06:01:17.875Z,5.25
2022-10-11T06:03:21.100Z,3.75
2022-10-11T06:05:23.411Z,4.78
2022-10-11T06:07:25.700Z,3.97
2022-10-11T06:09:27.953Z,5.72
2022-10-11T06:11:30.387Z,5.07
2022-10-11T06:13:32.668Z,5.03
2022-10-11T06:15:35.508Z,5.45
2022-10-11T06:17:38.176Z,4.47
2022-10-11T06:19:40.487Z,4.05
2022-10-11T06:21:42.789Z,5.25
2022-10-11T06:23:45.245Z,5.60
2022-10-11T06:25:56.483Z,3.97
2022-10-11T06:27:58.727Z,4.97
2022-10-11T06:30:00.986Z,5.75
2022-10-11T06:32:03.399Z,4.28
2022-10-11T06:34:05.646Z,5.47
2022-10-11T06:36:10.508Z,4.43
2022-10-11T06:38:12.755Z,3.88
2022-10-11T06:40:15.157Z,4.20
2022-10-11T06:42:17.766Z,6.00
2022-10-11T06:44:20.057Z,4.25
2022-10-11T06:46:23.270Z,5.20
2022-10-11T06:48:25.544Z,5.10
2022-10-11T06:50:54.269Z,7.43
2022-10-11T06:52:50.004Z,5.38
2022-10-11T06:54:52.382Z,6.50
2022-10-11T06:56:54.825Z,6.53
2022-10-11T06:58:57.964Z,7.20
2022-10-11T07:01:01.309Z,4.80
2022-10-11T07:03:03.668Z,6.88
2022-10-11T07:05:06.100Z,6.28
2022-10-11T07:07:08.371Z,5.20
2022-10-11T07:09:10.638Z,5.20
2022-10-11T07:11:14.140Z,5.00
2022-10-11T07:13:17.336Z,7.25
2022-10-11T07:15:19.762Z,5.43
2022-10-11T07:17:22.076Z,6.13
2022-10-11T07:19:24.533Z,4.43
2022-10-11T07:21:27.231Z,6.28
2022-10-11T07:23:29.442Z,6.68
2022-10-11T07:25:32.090Z,5.22
2022-10-11T07:27:34.384Z,6.65
2022-10-11T07:29:36.604Z,5.57
2022-10-11T07:31:40.067Z,5.55
2022-10-11T07:33:42.446Z,6.43
2022-10-11T07:35:48.220Z,6.65
2022-10-11T07:37:50.871Z,5.43
2022-10-11T07:39:53.211Z,6.13
2022-10-11T07:41:55.482Z,6.60
2022-10-11T07:43:57.747Z,4.75
2022-10-11T07:46:04.887Z,5.75
2022-10-11T07:48:07.658Z,6.05
2022-10-11T07:50:10.147Z,5.30
2022-10-11T07:52:12.474Z,5.97
2022-10-11T07:54:14.703Z,5.60
2022-10-11T07:56:18.392Z,6.53
2022-10-11T07:58:20.639Z,6.07
2022-10-11T08:00:23.053Z,6.40
2022-10-11T08:02:25.369Z,6.30
2022-10-11T08:04:27.707Z,6.25
2022-10-11T08:06:32.581Z,5.50
2022-10-11T08:08:35.528Z,5.68
2022-10-11T08:10:38.985Z,5.43
2022-10-11T08:12:41.270Z,4.95
2022-10-11T08:14:43.547Z,4.65
2022-10-11T08:16:45.869Z,3.95
2022-10-11T08:18:48.399Z,4.15
2022-10-11T08:20:50.691Z,3.95
2022-10-11T08:22:52.954Z,3.90
2022-10-11T08:24:55.250Z,3.80
2022-10-11T08:26:57.786Z,3.05
2022-10-11T08:29:04.089Z,3.72
2022-10-11T08:31:06.410Z,3.58
2022-10-11T08:33:08.875Z,3.28
2022-10-11T08:35:11.182Z,3.30
2022-10-11T08:37:13.610Z,3.33
2022-10-11T08:39:15.939Z,3.28
2022-10-11T08:41:33.564Z,3.28
2022-10-11T08:43:41.869Z,3.00
2022-10-11T08:45:47.292Z,3.22
2022-10-11T08:47:49.582Z,3.40
2022-10-11T08:49:52.414Z,3.58
2022-10-11T08:52:00.271Z,3.53
2022-10-11T08:54:07.746Z,3.78
2022-10-11T08:56:12.976Z,3.17
2022-10-11T08:58:18.068Z,3.55
2022-10-11T09:00:20.915Z,3.50
2022-10-11T09:03:02.853Z,3.47
2022-10-11T09:04:57.678Z,3.30
2022-10-11T09:07:09.719Z,3.63
2022-10-11T09:09:18.015Z,3.75
2022-10-11T09:11:24.729Z,3.72
2022-10-11T09:13:31.511Z,3.50
2022-10-11T09:15:48.198Z,3.78
2022-10-11T09:17:56.312Z,3.50
2022-10-11T09:20:07.926Z,2.65
2022-10-11T09:22:16.053Z,2.80
2022-10-11T09:24:31.323Z,2.90
2022-10-11T09:26:40.279Z,3.63
2022-10-11T09:28:42.584Z,3.63
2022-10-11T09:30:49.460Z,3.70
2022-10-11T09:32:57.568Z,3.30
2022-10-11T09:35:10.552Z,2.90
2022-10-11T09:37:18.749Z,2.85
2022-10-11T09:39:32.073Z,3.13
2022-10-11T09:41:39.218Z,3.67
2022-10-11T09:43:41.547Z,3.00
2022-10-11T09:45:49.460Z,3.33
2022-10-11T09:47:53.290Z,3.22
2022-10-11T09:49:59.923Z,3.00
2022-10-11T09:52:03.857Z,2.70
2022-10-11T09:54:07.014Z,2.92
2022-10-11T09:56:09.674Z,2.78
2022-10-11T09:58:25.955Z,2.92
2022-10-11T10:00:29.237Z,3.20
2022-10-11T10:02:32.003Z,2.90
2022-10-11T10:04:34.313Z,2.90
2022-10-11T10:06:37.293Z,2.80
2022-10-11T10:08:39.606Z,2.70
2022-10-11T10:10:48.725Z,2.33
2022-10-11T10:12:55.438Z,2.60
2022-10-11T10:15:03.633Z,2.92
2022-10-11T10:17:08.568Z,2.40
2022-10-11T10:19:19.140Z,2.80
2022-10-11T10:21:32.289Z,2.70
2022-10-11T10:23:35.461Z,2.60
2022-10-11T10:25:43.336Z,2.97
2022-10-11T10:27:56.533Z,2.60
2022-10-11T10:30:13.179Z,2.80
2022-10-11T10:32:20.758Z,3.00
2022-10-11T10:34:23.009Z,2.70
2022-10-11T10:36:30.413Z,2.65
2022-10-11T10:38:32.650Z,2.38
2022-10-11T10:40:41.206Z,2.60
2022-10-11T10:44:48.270Z,2.55
2022-10-11T10:46:53.582Z,2.92
2022-10-11T10:49:28.728Z,2.83
2022-10-11T10:51:30.388Z,2.80
2022-10-11T10:53:41.712Z,3.10
2022-10-11T10:55:45.868Z,3.10
2022-10-11T10:58:00.485Z,3.22
2022-10-11T11:00:03.081Z,2.80
2022-10-11T11:02:28.080Z,3.15
2022-10-11T11:04:35.041Z,2.75
2022-10-11T11:06:41.905Z,2.83
2022-10-11T11:08:58.213Z,2.97
2022-10-11T11:11:19.046Z,2.90
2022-10-11T11:13:23.962Z,3.10
2022-10-11T11:15:38.209Z,3.22
2022-10-11T11:18:01.170Z,3.10
2022-10-11T11:20:18.719Z,2.65
2022-10-11T11:22:36.358Z,3.10
2022-10-11T11:24:38.757Z,3.17
2022-10-11T11:26:45.381Z,2.88
2022-10-11T11:28:47.862Z,2.67
2022-10-11T11:30:58.398Z,2.95
2022-10-11T11:33:00.697Z,2.92
2022-10-11T11:35:04.740Z,3.03
2022-10-11T11:37:10.489Z,3.35
2022-10-11T11:39:16.934Z,2.95
2022-10-11T11:41:24.087Z,2.90
2022-10-11T11:43:35.388Z,2.80
2022-10-11T11:45:58.760Z,3.40
2022-10-11T11:48:06.202Z,2.83
2022-10-11T11:50:15.691Z,3.15
2022-10-11T11:52:23.676Z,3.22
2022-10-11T11:54:31.806Z,3.08
2022-10-11T11:56:42.755Z,2.97
2022-10-11T11:58:48.851Z,3.30
2022-10-11T12:01:09.890Z,2.47
2022-10-11T12:03:16.204Z,2.65
2022-10-11T12:05:20.931Z,3.50
2022-10-11T12:07:24.371Z,2.85
2022-10-11T12:09:26.856Z,3.05
2022-10-11T12:11:35.398Z,2.80
2022-10-11T12:13:39.082Z,3.03
2022-10-11T12:15:54.633Z,3.25
2022-10-11T12:17:57.224Z,2.92
2022-10-11T12:20:02.751Z,3.13
2022-10-11T12:22:18.037Z,3.35
2022-10-11T12:24:20.265Z,3.10
2022-10-11T12:26:28.397Z,2.78
2022-10-11T12:28:43.246Z,3.08
2022-10-11T12:30:48.325Z,3.03
2022-10-11T12:32:51.161Z,2.83
2022-10-11T12:35:13.542Z,2.58
2022-10-11T12:37:19.057Z,3.22
2022-10-11T12:39:21.333Z,3.10
2022-10-11T12:41:49.541Z,3.03
2022-10-11T12:43:52.031Z,2.63
2022-10-11T12:45:54.396Z,2.92
2022-10-11T12:48:02.906Z,3.03
2022-10-11T12:50:27.979Z,3.28
2022-10-11T12:52:38.175Z,3.40
2022-10-11T12:54:46.035Z,2.67
2022-10-11T12:56:53.785Z,2.97
2022-10-11T12:59:03.077Z,3.03
2022-10-11T13:01:05.456Z,2.90
2022-10-11T13:03:32.237Z,3.03
2022-10-11T13:05:35.092Z,2.78
2022-10-11T13:07:37.362Z,2.80
2022-10-11T13:09:43.176Z,2.95
2022-10-11T13:11:51.355Z,3.15
2022-10-11T13:13:55.729Z,2.50
2022-10-11T13:15:59.821Z,2.90
2022-10-11T13:18:02.641Z,2.92
2022-10-11T13:20:10.919Z,2.90
2022-10-11T13:22:21.334Z,2.65
2022-10-11T13:24:24.260Z,3.08
2022-10-11T13:26:28.620Z,2.80
2022-10-11T13:28:35.592Z,3.13
2022-10-11T13:30:43.049Z,2.80
2022-10-11T13:32:45.416Z,2.90
2022-10-11T13:34:49.895Z,3.17
2022-10-11T13:36:55.750Z,2.88
2022-10-11T13:38:59.413Z,2.88
2022-10-11T13:41:06.074Z,2.90
2022-10-11T13:43:08.756Z,2.72
2022-10-11T13:45:13.849Z,3.13
2022-10-11T13:47:17.846Z,3.05
2022-10-11T13:49:39.890Z,3.25
2022-10-11T13:51:42.132Z,2.80
2022-10-11T13:54:00.781Z,2.80
2022-10-11T13:56:04.491Z,2.40
2022-10-11T13:58:23.985Z,2.80
2022-10-11T14:00:29.947Z,2.72
2022-10-11T14:02:33.420Z,2.55
2022-10-11T14:04:44.506Z,2.80
2022-10-11T14:06:53.945Z,2.45
2022-10-11T14:08:56.941Z,3.10
2022-10-11T14:11:05.110Z,2.83
2022-10-11T14:13:25.701Z,2.85
2022-10-11T14:15:30.979Z,2.53
2022-10-11T14:17:40.498Z,2.80
2022-10-11T14:19:43.809Z,2.65
2022-10-11T14:21:46.959Z,2.67
2022-10-11T14:23:52.897Z,2.50
2022-10-11T14:25:55.203Z,2.55
2022-10-11T14:27:57.696Z,2.55
2022-10-11T14:30:23.983Z,2.58
2022-10-11T14:32:25.814Z,3.00
2022-10-11T14:34:28.133Z,2.58
2022-10-11T14:36:30.887Z,2.22
2022-10-11T14:38:33.170Z,2.53
2022-10-11T14:40:35.960Z,2.78
2022-10-11T14:42:38.207Z,2.50
2022-10-11T14:44:40.597Z,2.70
2022-10-11T14:46:43.418Z,2.33
2022-10-11T14:48:57.103Z,2.53
2022-10-11T14:51:00.785Z,2.55
2022-10-11T14:53:03.321Z,2.40
2022-10-11T14:55:05.613Z,2.47
2022-10-11T14:57:07.881Z,2.40
2022-10-11T14:59:12.861Z,2.28
2022-10-11T15:01:16.341Z,2.65
2022-10-11T15:03:18.679Z,2.40
2022-10-11T15:05:21.819Z,2.47
2022-10-11T15:07:24.051Z,2.42
2022-10-11T15:09:26.469Z,2.38
2022-10-11T15:11:28.730Z,2.50
2022-10-11T15:13:30.974Z,2.33
2022-10-11T15:15:36.386Z,2.40
2022-10-11T15:17:38.644Z,2.40
2022-10-11T15:19:40.892Z,2.55
2022-10-11T15:21:43.153Z,2.30
2022-10-11T15:23:45.405Z,2.70
2022-10-11T15:25:48.054Z,2.50
2022-10-11T15:27:50.473Z,2.28
2022-10-11T15:29:52.738Z,2.60
2022-10-11T15:31:55.009Z,2.45
2022-10-11T15:33:59.572Z,2.30
2022-10-11T15:36:01.884Z,2.40
2022-10-11T15:38:04.135Z,2.63
2022-10-11T15:40:26.672Z,2.35
2022-10-11T15:42:28.909Z,2.70
2022-10-11T15:44:31.155Z,2.20
2022-10-11T15:46:33.408Z,2.80
2022-10-11T15:48:35.930Z,2.45
2022-10-11T15:50:38.149Z,2.40
2022-10-11T15:52:40.425Z,2.40
2022-10-11T15:54:42.645Z,2.60
2022-10-11T15:56:44.942Z,2.80
2022-10-11T15:58:47.324Z,2.20
2022-10-11T16:00:50.466Z,2.40
2022-10-11T16:02:53.154Z,2.38
2022-10-11T16:04:55.449Z,2.60
2022-10-11T16:06:57.833Z,2.60
2022-10-11T16:09:00.153Z,2.75
2022-10-11T16:11:02.536Z,2.47
2022-10-11T16:13:05.149Z,2.58
2022-10-11T16:15:07.645Z,2.55
2022-10-11T16:17:10.080Z,2.38
2022-10-11T16:19:13.096Z,2.40
2022-10-11T16:21:15.655Z,2.30
2022-10-11T16:23:18.751Z,2.60
2022-10-11T16:25:21.511Z,2.30
2022-10-11T16:27:23.880Z,2.20
2022-10-11T16:29:26.420Z,2.40
2022-10-11T16:31:28.635Z,2.75
2022-10-11T16:33:31.825Z,2.22
2022-10-11T16:35:34.059Z,2.20
2022-10-11T16:37:36.521Z,2.63
2022-10-11T16:39:38.774Z,2.45
2022-10-11T16:41:41.079Z,2.50
2022-10-11T16:43:43.299Z,2.45
2022-10-11T16:45:45.531Z,2.60
2022-10-11T16:47:47.824Z,2.50
2022-10-11T16:49:50.256Z,2.35
2022-10-11T16:51:53.128Z,2.25
2022-10-11T16:53:55.476Z,2.40
2022-10-11T16:55:57.715Z,2.22
2022-10-11T16:57:59.929Z,2.65
2022-10-11T17:00:02.246Z,2.08
2022-10-11T17:02:05.158Z,2.60
2022-10-11T17:04:07.752Z,2.30
2022-10-11T17:06:10.101Z,2.25
2022-10-11T17:08:12.410Z,2.22
2022-10-11T17:10:14.689Z,2.80
2022-10-11T17:12:18.493Z,2.75
2022-10-11T17:14:21.767Z,3.22
2022-10-11T17:16:24.104Z,2.88
2022-10-11T17:18:26.409Z,2.70
2022-10-11T17:20:28.645Z,3.35
2022-10-11T17:22:31.003Z,3.00
2022-10-11T17:24:35.323Z,2.95
2022-10-11T17:26:37.652Z,2.58
2022-10-11T17:28:40.045Z,2.63
2022-10-11T17:30:42.361Z,2.90
2022-10-11T17:32:44.585Z,2.85
2022-10-11T17:34:46.944Z,2.95
2022-10-11T17:36:49.178Z,2.67
2022-10-11T17:38:52.168Z,2.60
2022-10-11T17:41:01.256Z,2.72
2022-10-11T17:43:03.571Z,2.83
2022-10-11T17:45:06.015Z,2.92
2022-10-11T17:47:08.345Z,3.28
2022-10-11T17:49:12.161Z,2.88
2022-10-11T17:51:16.031Z,2.70
2022-10-11T17:53:18.408Z,2.90
2022-10-11T17:55:20.675Z,2.90
2022-10-11T17:57:22.959Z,2.90
2022-10-11T17:59:27.586Z,2.95
2022-10-11T18:01:30.029Z,2.53
2022-10-11T18:03:32.759Z,2.70
2022-10-11T18:05:39.069Z,2.53
2022-10-11T18:07:41.338Z,2.97
2022-10-11T18:09:44.385Z,2.80
2022-10-11T18:11:47.332Z,2.85
2022-10-11T18:13:50.416Z,2.78
2022-10-11T18:15:53.687Z,2.35
2022-10-11T18:17:57.510Z,3.20
2022-10-11T18:19:59.855Z,2.70
2022-10-11T18:22:06.684Z,2.90
2022-10-11T18:24:11.932Z,2.90
2022-10-11T18:26:14.199Z,2.92
2022-10-11T18:28:19.868Z,2.45
2022-10-11T18:30:22.348Z,2.28
2022-10-11T18:32:24.601Z,2.63
2022-10-11T18:34:26.996Z,2.75
2022-10-11T18:36:30.143Z,2.60
2022-10-11T18:38:32.993Z,2.70
2022-10-11T18:40:42.243Z,2.72
2022-10-11T18:42:47.032Z,2.88
2022-10-11T18:44:49.287Z,3.15
2022-10-11T18:46:51.881Z,2.80
2022-10-11T18:48:54.976Z,3.20
2022-10-11T18:51:08.130Z,2.47
2022-10-11T18:53:10.800Z,2.60
2022-10-11T18:55:13.157Z,2.88
2022-10-11T18:57:17.916Z,2.88
2022-10-11T18:59:20.359Z,3.22
2022-10-11T19:01:23.849Z,2.55
2022-10-11T19:03:26.133Z,2.85
2022-10-11T19:05:28.363Z,2.38
2022-10-11T19:07:30.699Z,2.38
2022-10-11T19:09:33.049Z,2.67
2022-10-11T19:11:35.741Z,3.05
2022-10-11T19:13:38.101Z,2.80
2022-10-11T19:15:40.355Z,2.67
2022-10-11T19:17:42.934Z,2.63
2022-10-11T19:19:45.201Z,2.63
2022-10-11T19:21:48.749Z,2.53
2022-10-11T19:23:51.408Z,3.13
2022-10-11T19:25:57.646Z,2.30
2022-10-11T19:27:59.899Z,2.92
2022-10-11T19:30:02.192Z,2.47
2022-10-11T19:32:04.737Z,2.40
2022-10-11T19:34:06.959Z,2.75
2022-10-11T19:36:10.021Z,3.08
2022-10-11T19:38:12.328Z,2.60
2022-10-11T19:40:14.614Z,2.60
2022-10-11T19:42:16.939Z,2.92
2022-10-11T19:44:19.253Z,3.00
2022-10-11T19:46:44.449Z,2.40
2022-10-11T19:48:46.005Z,2.55
2022-10-11T19:50:48.247Z,2.70
2022-10-11T19:52:50.546Z,2.72
2022-10-11T19:54:52.810Z,2.65
2022-10-11T19:56:55.444Z,2.70
2022-10-11T19:58:58.332Z,2.35
2022-10-11T20:01:06.570Z,2.55
2022-10-11T20:03:09.281Z,2.40
2022-10-11T20:05:11.553Z,2.58
2022-10-11T20:07:13.822Z,2.55
2022-10-11T20:09:29.006Z,2.50
2022-10-11T20:11:31.668Z,2.90
2022-10-11T20:13:35.159Z,2.38
2022-10-11T20:15:38.073Z,2.30
2022-10-11T20:17:49.995Z,2.40
2022-10-11T20:19:52.906Z,2.10
2022-10-11T20:21:55.205Z,2.33
2022-10-11T20:23:59.088Z,2.70
2022-10-11T20:26:07.400Z,2.63
2022-10-11T20:28:09.673Z,2.35
2022-10-11T20:30:12.482Z,2.50
2022-10-11T20:32:14.740Z,2.53
2022-10-11T20:34:17.137Z,2.53
2022-10-11T20:36:20.086Z,2.75
2022-10-11T20:38:22.370Z,2.10
2022-10-11T20:40:25.182Z,2.40
2022-10-11T20:42:29.690Z,2.45
2022-10-11T20:44:32.319Z,2.22
2022-10-11T20:46:35.935Z,2.30
2022-10-11T20:48:40.552Z,2.80
2022-10-11T20:50:45.406Z,2.15
2022-10-11T20:52:48.141Z,2.40
2022-10-11T20:54:50.446Z,2.35
2022-10-11T20:56:52.726Z,2.38
2022-10-11T20:58:55.753Z,2.58
2022-10-11T21:00:58.086Z,2.40
2022-10-11T21:03:00.410Z,2.30
2022-10-11T21:05:02.654Z,2.72
2022-10-11T21:07:04.914Z,2.33
2022-10-11T21:09:08.559Z,2.65
2022-10-11T21:11:12.601Z,2.40
2022-10-11T21:13:14.878Z,2.45
2022-10-11T21:15:17.156Z,2.42
2022-10-11T21:17:19.391Z,2.85
2022-10-11T21:19:21.670Z,2.40
2022-10-11T21:21:24.347Z,2.53
2022-10-11T21:23:26.603Z,2.10
2022-10-11T21:25:28.851Z,2.63
2022-10-11T21:27:31.146Z,2.40
2022-10-11T21:29:33.475Z,2.60
2022-10-11T21:31:35.786Z,2.22
2022-10-11T21:33:38.201Z,2.38
2022-10-11T21:35:40.502Z,2.20
2022-10-11T21:37:42.761Z,2.58
2022-10-11T21:39:45.155Z,2.30
2022-10-11T21:41:47.514Z,2.47
2022-10-11T21:43:50.039Z,2.10
2022-10-11T21:45:52.298Z,2.40
2022-10-11T21:47:54.557Z,2.47
2022-10-11T21:49:56.829Z,2.35
2022-10-11T21:51:59.228Z,2.10
2022-10-11T21:54:01.543Z,2.30
2022-10-11T21:56:03.883Z,2.20
2022-10-11T21:58:06.840Z,2.08
2022-10-11T22:00:09.452Z,2.13
2022-10-11T22:02:15.658Z,2.35
2022-10-11T22:04:17.925Z,2.45
2022-10-11T22:06:20.959Z,2.80
2022-10-11T22:08:23.181Z,2.30
2022-10-11T22:10:25.424Z,2.58
2022-10-11T22:12:27.670Z,1.98
2022-10-11T22:14:30.037Z,2.50
2022-10-11T22:16:33.805Z,2.10
2022-10-11T22:18:36.536Z,2.63
2022-10-11T22:20:38.782Z,2.42
2022-10-11T22:22:41.086Z,2.33
2022-10-11T22:24:43.313Z,2.10
2022-10-11T22:26:45.846Z,2.03
2022-10-11T22:28:48.722Z,2.30
2022-10-11T22:30:51.078Z,2.20
2022-10-11T22:32:53.338Z,2.05
2022-10-11T22:34:56.005Z,2.58
2022-10-11T22:36:58.229Z,2.22
2022-10-11T22:39:00.538Z,2.05
2022-10-11T22:41:02.814Z,2.65
2022-10-11T22:43:05.040Z,2.20
2022-10-11T22:45:07.531Z,2.30
2022-10-11T22:47:09.830Z,2.42
2022-10-11T22:49:12.717Z,2.45
2022-10-11T22:51:14.977Z,2.50
2022-10-11T22:53:17.213Z,2.63
2022-10-11T22:55:20.244Z,2.20
2022-10-11T22:57:22.710Z,2.38
2022-10-11T22:59:25.017Z,2.28
2022-10-11T23:01:27.249Z,2.30
2022-10-11T23:03:29.561Z,2.90
2022-10-11T23:05:31.825Z,2.38
2022-10-11T23:07:34.368Z,1.92
2022-10-11T23:09:36.735Z,2.10
2022-10-11T23:11:39.018Z,2.13
2022-10-11T23:13:41.262Z,2.17
2022-10-11T23:15:43.537Z,2.17
2022-10-11T23:17:45.836Z,2.03
2022-10-11T23:19:48.265Z,2.17
2022-10-11T23:21:50.546Z,2.08
2022-10-11T23:23:53.845Z,2.17
2022-10-11T23:26:06.652Z,2.10
2022-10-11T23:28:08.978Z,2.50
2022-10-11T23:30:11.893Z,2.35
2022-10-11T23:32:14.182Z,2.45
2022-10-11T23:34:16.479Z,1.85
2022-10-11T23:36:23.121Z,2.17
2022-10-11T23:38:25.365Z,2.55
2022-10-11T23:40:27.596Z,2.42
2022-10-11T23:42:29.848Z,2.20
2022-10-11T23:44:32.083Z,2.38
2022-10-11T23:46:34.681Z,2.50
2022-10-11T23:48:36.929Z,2.28
2022-10-11T23:50:39.180Z,2.53
2022-10-11T23:52:41.393Z,2.20
2022-10-11T23:54:43.645Z,2.35
2022-10-11T23:56:45.929Z,2.58
2022-10-11T23:58:48.236Z,2.22
